createdAt,value
2022-11-16T00:01:33.741Z,3.39
2022-11-16T00:04:04.918Z,3.43
2022-11-16T00:06:31.819Z,3.46
2022-11-16T00:09:19.802Z,3.43
2022-11-16T00:11:48.831Z,3.46
2022-11-16T00:14:15.600Z,3.48
2022-11-16T00:16:42.407Z,3.49
2022-11-16T00:19:11.235Z,3.49
2022-11-16T00:21:38.116Z,3.49
2022-11-16T00:24:05.842Z,3.48
2022-11-16T00:26:32.590Z,3.43
2022-11-16T00:28:59.425Z,3.47
2022-11-16T00:31:26.031Z,3.45
2022-11-16T00:33:53.413Z,3.42
2022-11-16T00:36:20.422Z,3.41
2022-11-16T00:38:47.847Z,3.43
2022-11-16T00:41:14.650Z,3.43
2022-11-16T00:43:41.293Z,3.45
2022-11-16T00:46:09.106Z,3.48
2022-11-16T00:48:36.229Z,3.48
2022-11-16T00:51:03.041Z,3.47
2022-11-16T00:53:29.866Z,3.43
2022-11-16T00:55:56.556Z,3.40
2022-11-16T00:58:23.693Z,3.40
2022-11-16T01:00:50.793Z,3.38
2022-11-16T01:03:17.646Z,3.34
2022-11-16T01:05:44.302Z,3.28
2022-11-16T01:08:10.910Z,3.26
2022-11-16T01:10:40.657Z,3.23
2022-11-16T01:13:07.961Z,3.18
2022-11-16T01:15:35.072Z,3.16
2022-11-16T01:18:01.729Z,3.16
2022-11-16T01:20:29.383Z,3.15
2022-11-16T01:22:56.044Z,3.15
2022-11-16T01:25:22.691Z,3.15
2022-11-16T01:27:49.335Z,3.17
2022-11-16T01:30:16.744Z,3.18
2022-11-16T01:32:43.785Z,3.16
2022-11-16T01:35:14.541Z,3.19
2022-11-16T01:37:41.412Z,3.18
2022-11-16T01:40:08.648Z,3.20
2022-11-16T01:42:35.283Z,3.22
2022-11-16T01:45:15.390Z,3.27
2022-11-16T01:47:42.288Z,3.26
2022-11-16T01:50:16.811Z,3.28
2022-11-16T01:52:57.053Z,3.28
2022-11-16T01:55:24.925Z,3.29
2022-11-16T01:57:51.688Z,3.28
2022-11-16T02:00:19.043Z,3.30
2022-11-16T02:02:45.791Z,3.31
2022-11-16T02:05:20.081Z,3.31
2022-11-16T02:08:23.645Z,3.28
2022-11-16T02:11:22.443Z,3.26
2022-11-16T02:14:14.084Z,3.24
2022-11-16T02:17:03.345Z,3.17
2022-11-16T02:20:27.288Z,3.14
2022-11-16T02:23:07.771Z,3.11
2022-11-16T02:25:40.209Z,3.07
2022-11-16T02:28:31.523Z,3.03
2022-11-16T02:31:03.087Z,2.99
2022-11-16T02:33:38.919Z,2.94
2022-11-16T02:36:10.313Z,2.91
2022-11-16T02:38:40.528Z,2.89
2022-11-16T02:41:12.738Z,2.85
2022-11-16T02:43:43.610Z,2.83
2022-11-16T02:46:18.740Z,2.80
2022-11-16T02:48:50.409Z,2.73
2022-11-16T02:51:18.773Z,2.65
2022-11-16T02:54:14.966Z,2.58
2022-11-16T02:57:03.073Z,2.54
2022-11-16T02:59:44.541Z,2.50
2022-11-16T03:02:24.997Z,2.49
2022-11-16T03:05:21.615Z,2.51
2022-11-16T03:07:55.281Z,2.46
2022-11-16T03:10:41.560Z,2.46
2022-11-16T03:13:11.801Z,2.46
2022-11-16T03:15:41.741Z,2.48
2022-11-16T03:18:09.081Z,2.49
2022-11-16T03:20:39.099Z,2.47
2022-11-16T03:23:10.383Z,2.43
2022-11-16T03:25:44.178Z,2.42
2022-11-16T03:28:15.852Z,2.40
2022-11-16T03:31:06.042Z,2.39
2022-11-16T03:33:37.183Z,2.35
2022-11-16T03:36:15.566Z,2.31
2022-11-16T03:38:44.460Z,2.27
2022-11-16T03:41:12.644Z,2.27
2022-11-16T03:43:42.748Z,2.30
2022-11-16T03:46:09.969Z,2.30
2022-11-16T03:48:39.914Z,2.33
2022-11-16T03:51:09.147Z,2.31
2022-11-16T03:53:35.874Z,2.32
2022-11-16T03:56:02.909Z,2.34
2022-11-16T03:58:29.828Z,2.36
2022-11-16T04:00:56.946Z,2.33
2022-11-16T04:03:23.649Z,2.30
2022-11-16T04:06:09.813Z,2.30
2022-11-16T04:08:55.107Z,2.28
2022-11-16T04:11:41.323Z,2.30
2022-11-16T04:14:32.726Z,2.29
2022-11-16T04:17:18.021Z,2.34
2022-11-16T04:20:03.476Z,2.37
2022-11-16T04:22:53.018Z,2.40
2022-11-16T04:25:25.459Z,2.41
2022-11-16T04:28:13.394Z,2.41
2022-11-16T04:31:00.524Z,2.37
2022-11-16T04:33:46.412Z,2.30
2022-11-16T04:36:31.719Z,2.30
2022-11-16T04:38:58.452Z,2.31
2022-11-16T04:41:43.728Z,2.35
2022-11-16T04:44:10.619Z,2.40
2022-11-16T04:46:55.783Z,2.44
2022-11-16T04:49:22.507Z,2.40
2022-11-16T04:51:49.378Z,2.42
2022-11-16T04:54:16.117Z,2.44
2022-11-16T04:56:42.815Z,2.47
2022-11-16T04:59:09.683Z,2.48
2022-11-16T05:01:55.287Z,2.49
2022-11-16T05:04:22.047Z,2.46
2022-11-16T05:06:48.652Z,2.43
2022-11-16T05:09:15.842Z,2.42
2022-11-16T05:11:42.694Z,2.43
2022-11-16T05:14:10.284Z,2.43
2022-11-16T05:16:37.231Z,2.45
2022-11-16T05:19:23.120Z,2.45
2022-11-16T05:21:49.825Z,2.46
2022-11-16T05:24:35.012Z,2.47
2022-11-16T05:27:15.047Z,2.49
2022-11-16T05:29:42.073Z,2.51
2022-11-16T05:32:10.868Z,2.49
2022-11-16T05:34:37.892Z,2.54
2022-11-16T05:37:04.695Z,2.53
2022-11-16T05:39:31.331Z,2.53
2022-11-16T05:41:58.135Z,2.55
2022-11-16T05:44:25.274Z,2.56
2022-11-16T05:46:52.551Z,2.55
2022-11-16T05:49:19.922Z,2.56
2022-11-16T05:51:47.657Z,2.56
2022-11-16T05:54:17.584Z,2.56
2022-11-16T05:56:45.058Z,2.59
2022-11-16T05:59:16.835Z,2.61
2022-11-16T06:01:43.722Z,2.63
2022-11-16T06:04:10.834Z,2.64
2022-11-16T06:06:38.169Z,2.69
2022-11-16T06:09:05.750Z,2.72
2022-11-16T06:11:35.997Z,2.75
2022-11-16T06:14:03.555Z,2.80
2022-11-16T06:16:30.392Z,2.86
2022-11-16T06:18:57.544Z,2.92
2022-11-16T06:21:24.130Z,2.99
2022-11-16T06:23:50.796Z,3.07
2022-11-16T06:26:17.623Z,3.09
2022-11-16T06:28:44.834Z,3.12
2022-11-16T06:31:11.461Z,3.13
2022-11-16T06:33:38.287Z,3.10
2022-11-16T06:36:05.410Z,3.12
2022-11-16T06:38:32.395Z,3.12
2022-11-16T06:40:59.911Z,3.14
2022-11-16T06:43:27.049Z,3.16
2022-11-16T06:46:00.836Z,3.13
2022-11-16T06:48:27.830Z,3.11
2022-11-16T06:50:54.588Z,3.10
2022-11-16T06:53:28.712Z,3.10
2022-11-16T06:56:00.265Z,3.09
2022-11-16T06:58:30.724Z,3.09
2022-11-16T07:00:58.281Z,3.10
2022-11-16T07:03:24.903Z,3.16
2022-11-16T07:05:51.699Z,3.25
2022-11-16T07:08:18.488Z,3.26
2022-11-16T07:10:45.221Z,3.27
2022-11-16T07:13:11.957Z,3.30
2022-11-16T07:15:41.565Z,3.33
2022-11-16T07:18:08.507Z,3.35
2022-11-16T07:20:37.382Z,3.34
2022-11-16T07:23:04.673Z,3.38
2022-11-16T07:25:33.334Z,3.41
2022-11-16T07:28:00.444Z,3.50
2022-11-16T07:30:27.237Z,3.54
2022-11-16T07:32:58.964Z,3.56
2022-11-16T07:35:26.082Z,3.58
2022-11-16T07:37:52.911Z,3.60
2022-11-16T07:40:20.247Z,3.58
2022-11-16T07:42:47.164Z,3.55
2022-11-16T07:45:13.939Z,3.54
2022-11-16T07:47:40.685Z,3.57
2022-11-16T07:50:07.755Z,3.61
2022-11-16T07:52:34.581Z,3.67
2022-11-16T07:55:01.851Z,3.69
2022-11-16T07:57:29.104Z,3.68
2022-11-16T07:59:55.961Z,3.70
2022-11-16T08:02:22.830Z,3.71
2022-11-16T08:04:50.879Z,3.75
2022-11-16T08:07:17.727Z,3.76
2022-11-16T08:09:44.993Z,3.76
2022-11-16T08:12:12.118Z,3.80
2022-11-16T08:14:38.998Z,3.83
2022-11-16T08:17:05.827Z,3.89
2022-11-16T08:19:32.633Z,3.97
2022-11-16T08:21:59.273Z,4.06
2022-11-16T08:24:25.958Z,4.14
2022-11-16T08:26:54.260Z,4.18
2022-11-16T08:29:21.102Z,4.19
2022-11-16T08:31:47.768Z,4.20
2022-11-16T08:34:14.631Z,4.23
2022-11-16T08:36:41.450Z,4.29
2022-11-16T08:39:08.149Z,4.35
2022-11-16T08:41:38.041Z,4.41
2022-11-16T08:44:05.217Z,4.46
2022-11-16T08:46:31.808Z,4.47
2022-11-16T08:48:59.269Z,4.47
2022-11-16T08:51:26.687Z,4.49
2022-11-16T08:53:58.179Z,4.50
2022-11-16T08:56:27.566Z,4.53
2022-11-16T08:58:58.637Z,4.56
2022-11-16T09:01:27.920Z,4.60
2022-11-16T09:03:54.823Z,4.63
2022-11-16T09:06:22.912Z,4.75
2022-11-16T09:08:50.197Z,4.82
2022-11-16T09:11:20.258Z,4.88
2022-11-16T09:13:48.507Z,4.97
2022-11-16T09:16:16.921Z,5.07
2022-11-16T09:18:45.803Z,5.17
2022-11-16T09:21:12.499Z,5.26
2022-11-16T09:23:39.138Z,5.36
2022-11-16T09:26:06.496Z,5.41
2022-11-16T09:28:33.557Z,5.44
2022-11-16T09:31:02.775Z,5.50
2022-11-16T09:33:31.437Z,5.55
2022-11-16T09:36:09.551Z,5.62
2022-11-16T09:39:13.987Z,5.72
2022-11-16T09:41:43.771Z,5.82
2022-11-16T09:44:52.433Z,5.90
2022-11-16T09:47:22.383Z,5.95
2022-11-16T09:49:58.218Z,6.00
2022-11-16T09:52:48.557Z,6.03
2022-11-16T09:55:29.236Z,6.11
2022-11-16T09:58:00.045Z,6.15
2022-11-16T10:00:29.207Z,6.22
2022-11-16T10:03:23.566Z,6.28
2022-11-16T10:06:00.661Z,6.34
2022-11-16T10:08:42.387Z,6.40
2022-11-16T10:11:35.386Z,6.45
2022-11-16T10:14:20.439Z,6.54
2022-11-16T10:17:02.025Z,6.61
2022-11-16T10:19:47.594Z,6.69
2022-11-16T10:22:40.551Z,6.77
2022-11-16T10:25:16.921Z,6.83
2022-11-16T10:27:55.974Z,6.88
2022-11-16T10:30:23.411Z,6.92
2022-11-16T10:33:02.834Z,6.97
2022-11-16T10:35:39.759Z,7.01
2022-11-16T10:38:21.920Z,7.01
2022-11-16T10:41:17.464Z,7.09
2022-11-16T10:43:45.687Z,7.09
2022-11-16T10:46:17.554Z,7.12
2022-11-16T10:48:56.249Z,7.16
2022-11-16T10:51:23.369Z,7.22
2022-11-16T10:53:50.088Z,7.27
2022-11-16T10:56:22.530Z,7.33
2022-11-16T10:58:53.001Z,7.37
2022-11-16T11:01:36.663Z,7.43
2022-11-16T11:04:24.417Z,7.47
2022-11-16T11:06:56.759Z,7.51
2022-11-16T11:09:31.470Z,7.57
2022-11-16T11:12:36.213Z,7.59
2022-11-16T11:15:24.289Z,7.62
2022-11-16T11:18:15.668Z,7.61
2022-11-16T11:20:45.395Z,7.67
2022-11-16T11:23:24.086Z,7.68
2022-11-16T11:25:50.841Z,7.69
2022-11-16T11:28:29.216Z,7.70
2022-11-16T11:31:22.682Z,7.75
2022-11-16T11:34:00.840Z,7.79
2022-11-16T11:36:38.614Z,7.83
2022-11-16T11:39:11.883Z,7.89
2022-11-16T11:41:39.164Z,7.91
2022-11-16T11:44:15.878Z,7.95
2022-11-16T11:47:42.412Z,8.03
2022-11-16T11:49:43.070Z,8.10
2022-11-16T11:52:19.280Z,8.18
2022-11-16T11:54:47.819Z,8.29
2022-11-16T11:57:22.552Z,8.43
2022-11-16T11:59:53.137Z,8.56
2022-11-16T12:02:42.025Z,8.66
2022-11-16T12:05:16.017Z,8.66
2022-11-16T12:07:50.216Z,8.69
2022-11-16T12:10:49.711Z,8.71
2022-11-16T12:13:45.698Z,8.72
2022-11-16T12:16:33.002Z,8.71
2022-11-16T12:19:08.975Z,8.69
2022-11-16T12:22:17.833Z,8.70
2022-11-16T12:24:53.432Z,8.72
2022-11-16T12:27:29.199Z,8.74
2022-11-16T12:30:08.023Z,8.72
2022-11-16T12:33:02.596Z,8.71
2022-11-16T12:35:43.433Z,8.68
2022-11-16T12:38:25.944Z,8.64
2022-11-16T12:40:59.095Z,8.65
2022-11-16T12:43:47.666Z,8.68
2022-11-16T12:46:31.533Z,8.73
2022-11-16T12:49:13.406Z,8.73
2022-11-16T12:51:48.791Z,8.71
2022-11-16T12:55:19.041Z,8.69
2022-11-16T12:58:05.788Z,8.68
2022-11-16T13:00:48.554Z,8.67
2022-11-16T13:03:24.212Z,8.69
2022-11-16T13:06:08.659Z,8.72
2022-11-16T13:08:38.987Z,8.76
2022-11-16T13:11:18.051Z,8.80
2022-11-16T13:13:52.774Z,8.83
2022-11-16T13:16:21.264Z,8.88
2022-11-16T13:18:48.524Z,8.91
2022-11-16T13:21:21.228Z,8.93
2022-11-16T13:24:16.739Z,8.95
2022-11-16T13:27:06.363Z,8.93
2022-11-16T13:29:41.069Z,8.93
2022-11-16T13:32:11.242Z,8.90
2022-11-16T13:34:40.049Z,8.90
2022-11-16T13:37:38.847Z,8.95
2022-11-16T13:40:05.806Z,8.96
2022-11-16T13:42:35.716Z,8.98
2022-11-16T13:45:17.031Z,9.01
2022-11-16T13:47:55.871Z,9.02
2022-11-16T13:50:36.045Z,9.02
2022-11-16T13:56:03.475Z,9.07
2022-11-16T13:58:32.087Z,9.09
2022-11-16T14:01:14.440Z,9.10
2022-11-16T14:03:46.343Z,9.10
2022-11-16T14:06:19.649Z,9.10
2022-11-16T14:08:49.259Z,9.07
2022-11-16T14:11:37.099Z,9.04
2022-11-16T14:14:13.037Z,8.99
2022-11-16T14:16:47.097Z,9.00
2022-11-16T14:19:41.740Z,9.01
2022-11-16T14:22:19.426Z,9.02
2022-11-16T14:25:29.207Z,9.02
2022-11-16T14:28:01.038Z,9.01
2022-11-16T14:30:48.605Z,9.02
2022-11-16T14:33:28.629Z,9.00
2022-11-16T14:35:55.572Z,8.98
2022-11-16T14:38:42.405Z,8.94
2022-11-16T14:41:29.279Z,8.85
2022-11-16T14:43:58.425Z,8.77
2022-11-16T14:46:30.576Z,8.71
2022-11-16T14:48:59.305Z,8.66
2022-11-16T14:51:31.771Z,8.67
2022-11-16T14:54:05.583Z,8.68
2022-11-16T14:56:32.153Z,8.70
2022-11-16T14:59:01.188Z,8.74
2022-11-16T15:01:31.329Z,8.76
2022-11-16T15:04:03.807Z,8.76
2022-11-16T15:06:39.062Z,8.74
2022-11-16T15:09:06.203Z,8.74
2022-11-16T15:12:02.676Z,8.72
2022-11-16T15:14:34.202Z,8.68
2022-11-16T15:17:00.952Z,8.68
2022-11-16T15:19:32.375Z,8.68
2022-11-16T15:22:00.990Z,8.67
2022-11-16T15:24:32.066Z,8.64
2022-11-16T15:27:36.887Z,8.62
2022-11-16T15:30:15.175Z,8.62
2022-11-16T15:32:44.461Z,8.62
2022-11-16T15:35:32.119Z,8.62
2022-11-16T15:38:20.946Z,8.62
2022-11-16T15:40:56.570Z,8.64
2022-11-16T15:43:34.522Z,8.65
2022-11-16T15:46:03.859Z,8.59
2022-11-16T15:48:31.059Z,8.56
2022-11-16T15:51:05.291Z,8.56
2022-11-16T15:53:54.936Z,8.57
2022-11-16T15:56:27.572Z,8.55
2022-11-16T15:58:57.238Z,8.52
2022-11-16T16:01:25.640Z,8.49
2022-11-16T16:03:59.165Z,8.48
2022-11-16T16:06:45.363Z,8.49
2022-11-16T16:09:15.090Z,8.48
2022-11-16T16:11:42.037Z,8.48
2022-11-16T16:14:10.867Z,8.45
2022-11-16T16:16:38.459Z,8.45
2022-11-16T16:19:24.507Z,8.44
2022-11-16T16:21:51.906Z,8.43
2022-11-16T16:24:36.871Z,8.42
2022-11-16T16:27:12.174Z,8.38
2022-11-16T16:29:38.971Z,8.38
2022-11-16T16:32:05.873Z,8.37
2022-11-16T16:34:35.400Z,8.37
2022-11-16T16:37:04.317Z,8.38
2022-11-16T16:39:33.785Z,8.39
2022-11-16T16:42:00.663Z,8.41
2022-11-16T16:44:27.272Z,8.40
2022-11-16T16:46:54.207Z,8.40
2022-11-16T16:49:20.820Z,8.42
2022-11-16T16:51:47.442Z,8.43
2022-11-16T16:54:15.003Z,8.45
2022-11-16T16:56:41.607Z,8.45
2022-11-16T16:59:08.444Z,8.45
2022-11-16T17:01:35.410Z,8.45
2022-11-16T17:04:02.093Z,8.41
2022-11-16T17:06:30.643Z,8.40
2022-11-16T17:08:58.013Z,8.37
2022-11-16T17:11:25.150Z,8.38
2022-11-16T17:13:51.794Z,8.36
2022-11-16T17:16:18.650Z,8.36
2022-11-16T17:18:45.264Z,8.40
2022-11-16T17:21:11.861Z,8.44
2022-11-16T17:23:38.774Z,8.46
2022-11-16T17:26:07.872Z,8.49
2022-11-16T17:28:34.929Z,8.49
2022-11-16T17:31:03.317Z,8.48
2022-11-16T17:33:37.046Z,8.48
2022-11-16T17:36:05.106Z,8.48
2022-11-16T17:38:35.874Z,8.47
2022-11-16T17:41:14.707Z,8.49
2022-11-16T17:43:43.032Z,8.49
2022-11-16T17:46:18.347Z,8.48
2022-11-16T17:48:47.214Z,8.46
2022-11-16T17:51:20.224Z,8.43
2022-11-16T17:53:46.950Z,8.39
2022-11-16T17:56:15.830Z,8.39
2022-11-16T17:58:42.941Z,8.43
2022-11-16T18:01:09.564Z,8.46
2022-11-16T18:03:37.211Z,8.51
2022-11-16T18:06:09.501Z,8.55
2022-11-16T18:08:37.157Z,8.57
2022-11-16T18:11:24.514Z,8.55
2022-11-16T18:14:00.539Z,8.50
2022-11-16T18:16:30.340Z,8.49
2022-11-16T18:19:01.893Z,8.49
2022-11-16T18:21:29.412Z,8.52
2022-11-16T18:23:56.221Z,8.55
2022-11-16T18:26:24.757Z,8.54
2022-11-16T18:28:53.690Z,8.57
2022-11-16T18:31:22.859Z,8.57
2022-11-16T18:33:50.300Z,8.56
2022-11-16T18:36:18.681Z,8.56
2022-11-16T18:38:46.442Z,8.56
2022-11-16T18:41:13.427Z,8.60
2022-11-16T18:43:49.549Z,8.61
2022-11-16T18:46:17.211Z,8.62
2022-11-16T18:48:43.989Z,8.64
2022-11-16T18:51:11.357Z,8.64
2022-11-16T18:53:38.429Z,8.68
2022-11-16T18:56:05.884Z,8.69
2022-11-16T19:01:21.920Z,8.70
2022-11-16T19:03:48.862Z,8.66
2022-11-16T19:06:17.210Z,8.60
2022-11-16T19:08:46.837Z,8.57
2022-11-16T19:11:17.275Z,8.55
2022-11-16T19:13:44.732Z,8.53
2022-11-16T19:16:13.779Z,8.50
2022-11-16T19:18:40.851Z,8.47
2022-11-16T19:21:07.692Z,8.45
2022-11-16T19:23:43.134Z,8.44
2022-11-16T19:26:12.286Z,8.44
2022-11-16T19:28:40.936Z,8.45
2022-11-16T19:31:16.331Z,8.45
2022-11-16T19:33:44.493Z,8.48
2022-11-16T19:36:13.871Z,8.49
2022-11-16T19:38:41.052Z,8.46
2022-11-16T19:41:08.247Z,8.45
2022-11-16T19:43:35.342Z,8.48
2022-11-16T19:46:04.612Z,8.49
2022-11-16T19:48:32.762Z,8.50
2022-11-16T19:51:10.332Z,8.49
2022-11-16T19:53:38.111Z,8.49
2022-11-16T19:56:05.896Z,8.51
2022-11-16T19:58:37.353Z,8.52
2022-11-16T20:01:10.548Z,8.53
2022-11-16T20:03:38.483Z,8.56
2022-11-16T20:06:25.588Z,8.58
2022-11-16T20:08:58.547Z,8.59
2022-11-16T20:11:31.328Z,8.62
2022-11-16T20:13:58.533Z,8.61
2022-11-16T20:16:37.004Z,8.65
2022-11-16T20:19:07.696Z,8.68
2022-11-16T20:21:44.496Z,8.70
2022-11-16T20:24:13.634Z,8.73
2022-11-16T20:26:46.120Z,8.76
2022-11-16T20:29:14.415Z,8.75
2022-11-16T20:31:42.902Z,8.75
2022-11-16T20:34:14.231Z,8.75
2022-11-16T20:36:46.475Z,8.77
2022-11-16T20:39:15.123Z,8.76
2022-11-16T20:41:43.967Z,8.75
2022-11-16T20:44:18.552Z,8.74
2022-11-16T20:46:45.798Z,8.74
2022-11-16T20:49:12.954Z,8.74
2022-11-16T20:51:39.931Z,8.73
2022-11-16T20:54:07.105Z,8.74
2022-11-16T20:56:34.335Z,8.74
2022-11-16T20:59:01.830Z,8.74
2022-11-16T21:01:31.453Z,8.74
2022-11-16T21:04:00.437Z,8.72
2022-11-16T21:06:27.981Z,8.70
2022-11-16T21:08:55.344Z,8.68
2022-11-16T21:11:29.238Z,8.65
2022-11-16T21:14:14.928Z,8.64
2022-11-16T21:16:41.765Z,8.61
2022-11-16T21:19:08.439Z,8.63
2022-11-16T21:21:35.236Z,8.65
2022-11-16T21:24:02.696Z,8.68
2022-11-16T21:26:31.662Z,8.70
2022-11-16T21:29:00.099Z,8.73
2022-11-16T21:31:32.032Z,8.73
2022-11-16T21:34:00.800Z,8.73
2022-11-16T21:36:29.470Z,8.74
2022-11-16T21:38:56.389Z,8.74
2022-11-16T21:41:24.216Z,8.71
2022-11-16T21:43:51.139Z,8.73
2022-11-16T21:46:20.482Z,8.75
2022-11-16T21:48:48.155Z,8.77
2022-11-16T21:51:17.301Z,8.77
2022-11-16T21:53:44.641Z,8.82
2022-11-16T21:56:16.611Z,8.82
2022-11-16T21:58:44.020Z,8.83
2022-11-16T22:01:12.669Z,8.84
2022-11-16T22:03:39.629Z,8.83
2022-11-16T22:06:26.681Z,8.84
2022-11-16T22:08:53.531Z,8.83
2022-11-16T22:11:22.402Z,8.85
2022-11-16T22:13:50.430Z,8.86
2022-11-16T22:16:18.984Z,8.84
2022-11-16T22:18:45.671Z,8.82
2022-11-16T22:21:13.021Z,8.84
2022-11-16T22:23:40.053Z,8.84
2022-11-16T22:26:09.737Z,8.84
2022-11-16T22:28:36.771Z,8.84
2022-11-16T22:31:06.257Z,8.85
2022-11-16T22:33:35.042Z,8.86
2022-11-16T22:36:02.954Z,8.86
2022-11-16T22:38:30.185Z,8.85
2022-11-16T22:40:57.617Z,8.84
2022-11-16T22:43:26.976Z,8.84
2022-11-16T22:46:02.436Z,8.82
2022-11-16T22:48:36.977Z,8.85
2022-11-16T22:51:12.238Z,8.82
2022-11-16T22:53:39.273Z,8.81
2022-11-16T22:56:08.116Z,8.79
2022-11-16T22:58:36.060Z,8.79
2022-11-16T23:01:03.918Z,8.79
2022-11-16T23:03:30.964Z,8.78
2022-11-16T23:05:57.673Z,8.78
2022-11-16T23:08:27.142Z,8.77
2022-11-16T23:11:23.009Z,8.79
2022-11-16T23:14:09.470Z,8.78
2022-11-16T23:16:36.334Z,8.78
2022-11-16T23:19:03.421Z,8.78
2022-11-16T23:21:48.992Z,8.77
2022-11-16T23:24:34.220Z,8.76
2022-11-16T23:27:33.874Z,8.74
2022-11-16T23:30:06.571Z,8.71
2022-11-16T23:32:36.443Z,8.71
2022-11-16T23:35:03.476Z,8.71
2022-11-16T23:37:30.140Z,8.74
2022-11-16T23:39:57.068Z,8.75
2022-11-16T23:42:53.111Z,8.76
2022-11-16T23:45:20.684Z,8.78
2022-11-16T23:47:47.393Z,8.76
2022-11-16T23:50:13.999Z,8.77
2022-11-16T23:52:40.748Z,8.78
2022-11-16T23:55:07.824Z,8.78
2022-11-16T23:57:34.404Z,8.80
